sensor_id;sensor_type;location;lat;lon;timestamp;P1;durP1;ratioP1;P2;durP2;ratioP2
19280;SDS011;9774;52.034;5.342;2023-07-30T00:02:27;3.83;;;1.10;;
19280;SDS011;9774;52.034;5.342;2023-07-30T00:04:54;2.55;;;1.10;;
19280;SDS011;9774;52.034;5.342;2023-07-30T00:07:22;3.45;;;1.23;;
19280;SDS011;9774;52.034;5.342;2023-07-30T00:09:50;2.55;;;0.95;;
19280;SDS011;9774;52.034;5.342;2023-07-30T00:12:17;5.97;;;1.30;;
19280;SDS011;9774;52.034;5.342;2023-07-30T00:14:44;3.47;;;0.98;;
19280;SDS011;9774;52.034;5.342;2023-07-30T00:17:12;2.20;;;1.38;;
19280;SDS011;9774;52.034;5.342;2023-07-30T00:19:39;5.88;;;1.42;;
19280;SDS011;9774;52.034;5.342;2023-07-30T00:22:06;1.98;;;0.95;;
19280;SDS011;9774;52.034;5.342;2023-07-30T00:24:35;5.63;;;1.20;;
19280;SDS011;9774;52.034;5.342;2023-07-30T00:27:02;2.47;;;0.90;;
19280;SDS011;9774;52.034;5.342;2023-07-30T00:29:29;2.10;;;1.20;;
19280;SDS011;9774;52.034;5.342;2023-07-30T00:31:57;3.05;;;1.30;;
19280;SDS011;9774;52.034;5.342;2023-07-30T00:34:24;1.73;;;1.20;;
19280;SDS011;9774;52.034;5.342;2023-07-30T00:36:51;3.08;;;1.10;;
19280;SDS011;9774;52.034;5.342;2023-07-30T00:39:18;1.30;;;0.95;;
19280;SDS011;9774;52.034;5.342;2023-07-30T00:41:47;3.08;;;1.25;;
19280;SDS011;9774;52.034;5.342;2023-07-30T00:44:15;2.53;;;0.95;;
19280;SDS011;9774;52.034;5.342;2023-07-30T00:46:42;1.95;;;1.10;;
19280;SDS011;9774;52.034;5.342;2023-07-30T00:49:10;3.42;;;0.95;;
19280;SDS011;9774;52.034;5.342;2023-07-30T00:51:37;3.15;;;1.33;;
19280;SDS011;9774;52.034;5.342;2023-07-30T00:54:06;2.22;;;1.35;;
19280;SDS011;9774;52.034;5.342;2023-07-30T00:56:33;2.30;;;1.02;;
19280;SDS011;9774;52.034;5.342;2023-07-30T00:59:03;4.88;;;1.35;;
19280;SDS011;9774;52.034;5.342;2023-07-30T01:01:30;1.70;;;1.40;;
19280;SDS011;9774;52.034;5.342;2023-07-30T01:04:01;3.40;;;1.55;;
19280;SDS011;9774;52.034;5.342;2023-07-30T01:06:29;3.40;;;1.30;;
19280;SDS011;9774;52.034;5.342;2023-07-30T01:08:56;2.45;;;1.30;;
19280;SDS011;9774;52.034;5.342;2023-07-30T01:11:24;2.65;;;1.10;;
19280;SDS011;9774;52.034;5.342;2023-07-30T01:13:52;5.00;;;1.10;;
19280;SDS011;9774;52.034;5.342;2023-07-30T01:16:21;3.30;;;1.30;;
19280;SDS011;9774;52.034;5.342;2023-07-30T01:18:49;5.40;;;1.50;;
19280;SDS011;9774;52.034;5.342;2023-07-30T01:21:17;3.67;;;2.13;;
19280;SDS011;9774;52.034;5.342;2023-07-30T01:23:44;3.53;;;1.33;;
19280;SDS011;9774;52.034;5.342;2023-07-30T01:26:12;2.67;;;1.00;;
19280;SDS011;9774;52.034;5.342;2023-07-30T01:28:45;3.83;;;1.48;;
19280;SDS011;9774;52.034;5.342;2023-07-30T01:31:15;3.53;;;1.30;;
19280;SDS011;9774;52.034;5.342;2023-07-30T01:33:44;2.40;;;1.10;;
19280;SDS011;9774;52.034;5.342;2023-07-30T01:36:15;4.70;;;1.77;;
19280;SDS011;9774;52.034;5.342;2023-07-30T01:38:44;3.53;;;1.20;;
19280;SDS011;9774;52.034;5.342;2023-07-30T01:41:12;4.57;;;1.23;;
19280;SDS011;9774;52.034;5.342;2023-07-30T01:43:40;4.88;;;1.45;;
19280;SDS011;9774;52.034;5.342;2023-07-30T01:46:07;3.80;;;1.30;;
19280;SDS011;9774;52.034;5.342;2023-07-30T01:48:34;2.90;;;1.65;;
19280;SDS011;9774;52.034;5.342;2023-07-30T01:51:02;3.38;;;0.90;;
19280;SDS011;9774;52.034;5.342;2023-07-30T01:53:30;2.83;;;1.38;;
19280;SDS011;9774;52.034;5.342;2023-07-30T01:55:57;4.22;;;1.30;;
19280;SDS011;9774;52.034;5.342;2023-07-30T01:58:25;4.13;;;1.27;;
19280;SDS011;9774;52.034;5.342;2023-07-30T02:00:52;4.28;;;1.42;;
19280;SDS011;9774;52.034;5.342;2023-07-30T02:03:19;2.83;;;1.45;;
19280;SDS011;9774;52.034;5.342;2023-07-30T02:05:46;2.42;;;0.95;;
19280;SDS011;9774;52.034;5.342;2023-07-30T02:08:14;3.72;;;1.00;;
19280;SDS011;9774;52.034;5.342;2023-07-30T02:10:43;1.98;;;1.20;;
19280;SDS011;9774;52.034;5.342;2023-07-30T02:13:10;7.32;;;1.40;;
19280;SDS011;9774;52.034;5.342;2023-07-30T02:15:39;4.65;;;1.20;;
19280;SDS011;9774;52.034;5.342;2023-07-30T02:18:07;2.28;;;1.35;;
19280;SDS011;9774;52.034;5.342;2023-07-30T02:20:35;4.57;;;1.30;;
19280;SDS011;9774;52.034;5.342;2023-07-30T02:23:02;3.55;;;1.40;;
19280;SDS011;9774;52.034;5.342;2023-07-30T02:25:30;3.85;;;1.50;;
19280;SDS011;9774;52.034;5.342;2023-07-30T02:27:58;5.63;;;1.98;;
19280;SDS011;9774;52.034;5.342;2023-07-30T02:30:26;3.00;;;1.30;;
19280;SDS011;9774;52.034;5.342;2023-07-30T02:32:54;4.38;;;1.55;;
19280;SDS011;9774;52.034;5.342;2023-07-30T02:35:21;3.25;;;1.40;;
19280;SDS011;9774;52.034;5.342;2023-07-30T02:37:48;4.68;;;1.15;;
19280;SDS011;9774;52.034;5.342;2023-07-30T02:40:15;3.58;;;1.20;;
19280;SDS011;9774;52.034;5.342;2023-07-30T02:42:43;3.40;;;1.13;;
19280;SDS011;9774;52.034;5.342;2023-07-30T02:45:11;4.75;;;1.20;;
19280;SDS011;9774;52.034;5.342;2023-07-30T02:47:39;4.53;;;1.40;;
19280;SDS011;9774;52.034;5.342;2023-07-30T02:50:06;7.65;;;1.65;;
19280;SDS011;9774;52.034;5.342;2023-07-30T02:52:34;2.88;;;1.30;;
19280;SDS011;9774;52.034;5.342;2023-07-30T02:55:01;3.25;;;1.30;;
19280;SDS011;9774;52.034;5.342;2023-07-30T02:57:29;8.13;;;1.75;;
19280;SDS011;9774;52.034;5.342;2023-07-30T02:59:56;9.15;;;1.80;;
19280;SDS011;9774;52.034;5.342;2023-07-30T03:02:24;7.18;;;1.45;;
19280;SDS011;9774;52.034;5.342;2023-07-30T03:04:52;3.75;;;1.35;;
19280;SDS011;9774;52.034;5.342;2023-07-30T03:07:19;9.95;;;1.83;;
19280;SDS011;9774;52.034;5.342;2023-07-30T03:09:47;3.88;;;1.45;;
19280;SDS011;9774;52.034;5.342;2023-07-30T03:12:14;4.75;;;1.77;;
19280;SDS011;9774;52.034;5.342;2023-07-30T03:14:42;6.47;;;1.90;;
19280;SDS011;9774;52.034;5.342;2023-07-30T03:17:09;5.50;;;1.92;;
19280;SDS011;9774;52.034;5.342;2023-07-30T03:19:37;4.45;;;1.20;;
19280;SDS011;9774;52.034;5.342;2023-07-30T03:22:05;4.90;;;1.60;;
19280;SDS011;9774;52.034;5.342;2023-07-30T03:24:32;9.93;;;2.08;;
19280;SDS011;9774;52.034;5.342;2023-07-30T03:26:59;6.93;;;2.25;;
19280;SDS011;9774;52.034;5.342;2023-07-30T03:29:26;6.97;;;2.28;;
19280;SDS011;9774;52.034;5.342;2023-07-30T03:31:54;9.95;;;2.10;;
19280;SDS011;9774;52.034;5.342;2023-07-30T03:34:21;5.45;;;2.28;;
19280;SDS011;9774;52.034;5.342;2023-07-30T03:36:49;6.28;;;2.00;;
19280;SDS011;9774;52.034;5.342;2023-07-30T03:39:17;6.32;;;2.00;;
19280;SDS011;9774;52.034;5.342;2023-07-30T03:41:44;4.95;;;1.90;;
19280;SDS011;9774;52.034;5.342;2023-07-30T03:44:11;6.57;;;1.85;;
19280;SDS011;9774;52.034;5.342;2023-07-30T03:46:38;3.25;;;1.55;;
19280;SDS011;9774;52.034;5.342;2023-07-30T03:49:06;8.40;;;2.00;;
19280;SDS011;9774;52.034;5.342;2023-07-30T03:51:33;5.28;;;1.80;;
19280;SDS011;9774;52.034;5.342;2023-07-30T03:54:02;5.75;;;1.83;;
19280;SDS011;9774;52.034;5.342;2023-07-30T03:56:29;7.00;;;2.13;;
19280;SDS011;9774;52.034;5.342;2023-07-30T03:58:56;5.93;;;1.80;;
19280;SDS011;9774;52.034;5.342;2023-07-30T04:01:24;5.93;;;1.73;;
19280;SDS011;9774;52.034;5.342;2023-07-30T04:03:51;5.35;;;1.63;;
19280;SDS011;9774;52.034;5.342;2023-07-30T04:06:18;10.90;;;2.55;;
19280;SDS011;9774;52.034;5.342;2023-07-30T04:08:45;7.30;;;2.33;;
19280;SDS011;9774;52.034;5.342;2023-07-30T04:11:14;15.43;;;2.92;;
19280;SDS011;9774;52.034;5.342;2023-07-30T04:13:41;6.05;;;2.10;;
19280;SDS011;9774;52.034;5.342;2023-07-30T04:16:09;6.53;;;2.22;;
19280;SDS011;9774;52.034;5.342;2023-07-30T04:18:36;9.57;;;2.40;;
19280;SDS011;9774;52.034;5.342;2023-07-30T04:21:03;3.72;;;2.30;;
19280;SDS011;9774;52.034;5.342;2023-07-30T04:23:30;10.20;;;2.67;;
19280;SDS011;9774;52.034;5.342;2023-07-30T04:25:57;11.00;;;3.28;;
19280;SDS011;9774;52.034;5.342;2023-07-30T04:28:26;5.78;;;1.80;;
19280;SDS011;9774;52.034;5.342;2023-07-30T04:30:53;13.00;;;3.45;;
19280;SDS011;9774;52.034;5.342;2023-07-30T04:33:21;7.90;;;2.63;;
19280;SDS011;9774;52.034;5.342;2023-07-30T04:35:48;9.90;;;3.00;;
19280;SDS011;9774;52.034;5.342;2023-07-30T04:38:15;6.00;;;2.65;;
19280;SDS011;9774;52.034;5.342;2023-07-30T04:40:42;8.13;;;2.90;;
19280;SDS011;9774;52.034;5.342;2023-07-30T04:43:10;8.93;;;2.88;;
19280;SDS011;9774;52.034;5.342;2023-07-30T04:45:38;14.90;;;3.50;;
19280;SDS011;9774;52.034;5.342;2023-07-30T04:48:06;11.25;;;2.80;;
19280;SDS011;9774;52.034;5.342;2023-07-30T04:50:33;6.78;;;2.42;;
19280;SDS011;9774;52.034;5.342;2023-07-30T04:53:00;8.35;;;2.65;;
19280;SDS011;9774;52.034;5.342;2023-07-30T04:55:27;7.05;;;2.75;;
19280;SDS011;9774;52.034;5.342;2023-07-30T04:57:54;9.30;;;3.38;;
19280;SDS011;9774;52.034;5.342;2023-07-30T05:00:22;5.88;;;2.42;;
19280;SDS011;9774;52.034;5.342;2023-07-30T05:02:50;11.73;;;3.50;;
19280;SDS011;9774;52.034;5.342;2023-07-30T05:05:17;9.35;;;2.67;;
19280;SDS011;9774;52.034;5.342;2023-07-30T05:07:45;7.10;;;3.10;;
19280;SDS011;9774;52.034;5.342;2023-07-30T05:10:12;14.30;;;4.72;;
19280;SDS011;9774;52.034;5.342;2023-07-30T05:12:41;7.93;;;3.05;;
19280;SDS011;9774;52.034;5.342;2023-07-30T05:15:08;7.93;;;3.55;;
19280;SDS011;9774;52.034;5.342;2023-07-30T05:17:35;11.32;;;3.42;;
19280;SDS011;9774;52.034;5.342;2023-07-30T05:20:05;7.10;;;3.22;;
19280;SDS011;9774;52.034;5.342;2023-07-30T05:22:33;8.57;;;4.03;;
19280;SDS011;9774;52.034;5.342;2023-07-30T05:25:00;7.30;;;3.38;;
19280;SDS011;9774;52.034;5.342;2023-07-30T05:27:28;8.85;;;3.55;;
19280;SDS011;9774;52.034;5.342;2023-07-30T05:29:56;15.48;;;3.35;;
19280;SDS011;9774;52.034;5.342;2023-07-30T05:32:25;8.82;;;3.22;;
19280;SDS011;9774;52.034;5.342;2023-07-30T05:34:52;12.73;;;4.22;;
19280;SDS011;9774;52.034;5.342;2023-07-30T05:37:20;9.65;;;3.60;;
19280;SDS011;9774;52.034;5.342;2023-07-30T05:39:48;9.73;;;3.60;;
19280;SDS011;9774;52.034;5.342;2023-07-30T05:42:15;7.70;;;2.60;;
19280;SDS011;9774;52.034;5.342;2023-07-30T05:44:42;6.70;;;2.75;;
19280;SDS011;9774;52.034;5.342;2023-07-30T05:47:09;8.80;;;3.65;;
19280;SDS011;9774;52.034;5.342;2023-07-30T05:49:37;8.40;;;3.40;;
19280;SDS011;9774;52.034;5.342;2023-07-30T05:52:05;13.23;;;4.00;;
19280;SDS011;9774;52.034;5.342;2023-07-30T05:54:33;10.32;;;3.35;;
19280;SDS011;9774;52.034;5.342;2023-07-30T05:57:01;10.18;;;3.88;;
19280;SDS011;9774;52.034;5.342;2023-07-30T05:59:28;8.85;;;4.05;;
19280;SDS011;9774;52.034;5.342;2023-07-30T06:01:55;7.20;;;3.50;;
19280;SDS011;9774;52.034;5.342;2023-07-30T06:04:24;7.43;;;3.38;;
19280;SDS011;9774;52.034;5.342;2023-07-30T06:06:51;6.63;;;3.38;;
19280;SDS011;9774;52.034;5.342;2023-07-30T06:09:18;10.02;;;3.53;;
19280;SDS011;9774;52.034;5.342;2023-07-30T06:11:47;8.43;;;3.50;;
19280;SDS011;9774;52.034;5.342;2023-07-30T06:14:14;11.60;;;4.10;;
19280;SDS011;9774;52.034;5.342;2023-07-30T06:16:41;8.07;;;3.92;;
19280;SDS011;9774;52.034;5.342;2023-07-30T06:19:09;12.77;;;4.07;;
19280;SDS011;9774;52.034;5.342;2023-07-30T06:21:36;11.57;;;4.40;;
19280;SDS011;9774;52.034;5.342;2023-07-30T06:24:04;9.65;;;4.10;;
19280;SDS011;9774;52.034;5.342;2023-07-30T06:26:31;12.15;;;4.97;;
19280;SDS011;9774;52.034;5.342;2023-07-30T06:29:00;9.10;;;4.25;;
19280;SDS011;9774;52.034;5.342;2023-07-30T06:31:27;6.95;;;4.30;;
19280;SDS011;9774;52.034;5.342;2023-07-30T06:33:55;10.00;;;4.05;;
19280;SDS011;9774;52.034;5.342;2023-07-30T06:36:22;13.25;;;4.53;;
19280;SDS011;9774;52.034;5.342;2023-07-30T06:38:49;8.15;;;4.07;;
19280;SDS011;9774;52.034;5.342;2023-07-30T06:41:16;9.73;;;4.40;;
19280;SDS011;9774;52.034;5.342;2023-07-30T06:43:44;10.18;;;3.53;;
19280;SDS011;9774;52.034;5.342;2023-07-30T06:46:13;15.63;;;4.35;;
19280;SDS011;9774;52.034;5.342;2023-07-30T06:48:40;10.48;;;3.70;;
19280;SDS011;9774;52.034;5.342;2023-07-30T06:51:09;15.55;;;4.20;;
19280;SDS011;9774;52.034;5.342;2023-07-30T06:53:37;8.88;;;4.10;;
19280;SDS011;9774;52.034;5.342;2023-07-30T06:56:05;8.38;;;3.83;;
19280;SDS011;9774;52.034;5.342;2023-07-30T06:58:32;10.70;;;3.63;;
19280;SDS011;9774;52.034;5.342;2023-07-30T07:00:59;7.55;;;3.70;;
19280;SDS011;9774;52.034;5.342;2023-07-30T07:03:28;8.48;;;3.45;;
19280;SDS011;9774;52.034;5.342;2023-07-30T07:05:56;13.35;;;4.70;;
19280;SDS011;9774;52.034;5.342;2023-07-30T07:08:23;13.18;;;3.75;;
19280;SDS011;9774;52.034;5.342;2023-07-30T07:10:52;7.80;;;3.47;;
19280;SDS011;9774;52.034;5.342;2023-07-30T07:13:19;14.48;;;4.07;;
19280;SDS011;9774;52.034;5.342;2023-07-30T07:15:47;10.80;;;3.65;;
19280;SDS011;9774;52.034;5.342;2023-07-30T07:18:14;8.80;;;3.22;;
19280;SDS011;9774;52.034;5.342;2023-07-30T07:20:43;7.47;;;2.80;;
19280;SDS011;9774;52.034;5.342;2023-07-30T07:23:10;10.50;;;2.85;;
19280;SDS011;9774;52.034;5.342;2023-07-30T07:25:37;7.88;;;3.33;;
19280;SDS011;9774;52.034;5.342;2023-07-30T07:28:04;11.65;;;3.38;;
19280;SDS011;9774;52.034;5.342;2023-07-30T07:30:34;6.75;;;2.80;;
19280;SDS011;9774;52.034;5.342;2023-07-30T07:33:01;5.20;;;2.45;;
19280;SDS011;9774;52.034;5.342;2023-07-30T07:35:30;4.45;;;2.28;;
19280;SDS011;9774;52.034;5.342;2023-07-30T07:37:59;7.75;;;2.85;;
19280;SDS011;9774;52.034;5.342;2023-07-30T07:40:26;6.43;;;2.22;;
19280;SDS011;9774;52.034;5.342;2023-07-30T07:42:54;9.30;;;3.10;;
19280;SDS011;9774;52.034;5.342;2023-07-30T07:45:21;5.90;;;2.85;;
19280;SDS011;9774;52.034;5.342;2023-07-30T07:47:49;8.35;;;2.35;;
19280;SDS011;9774;52.034;5.342;2023-07-30T07:50:16;8.13;;;2.40;;
19280;SDS011;9774;52.034;5.342;2023-07-30T07:52:43;8.75;;;2.47;;
19280;SDS011;9774;52.034;5.342;2023-07-30T07:55:12;8.98;;;2.33;;
19280;SDS011;9774;52.034;5.342;2023-07-30T07:57:39;5.28;;;2.28;;
19280;SDS011;9774;52.034;5.342;2023-07-30T08:00:07;11.40;;;3.58;;
19280;SDS011;9774;52.034;5.342;2023-07-30T08:02:35;10.13;;;3.28;;
19280;SDS011;9774;52.034;5.342;2023-07-30T08:05:03;8.20;;;3.30;;
19280;SDS011;9774;52.034;5.342;2023-07-30T08:07:30;7.25;;;2.85;;
19280;SDS011;9774;52.034;5.342;2023-07-30T08:09:57;6.28;;;2.40;;
19280;SDS011;9774;52.034;5.342;2023-07-30T08:12:26;7.20;;;2.85;;
19280;SDS011;9774;52.034;5.342;2023-07-30T08:14:53;11.02;;;3.05;;
19280;SDS011;9774;52.034;5.342;2023-07-30T08:17:21;10.50;;;3.03;;
19280;SDS011;9774;52.034;5.342;2023-07-30T08:19:48;5.28;;;2.80;;
19280;SDS011;9774;52.034;5.342;2023-07-30T08:22:15;6.97;;;2.20;;
19280;SDS011;9774;52.034;5.342;2023-07-30T08:24:43;9.00;;;2.50;;
19280;SDS011;9774;52.034;5.342;2023-07-30T08:27:10;5.18;;;1.95;;
19280;SDS011;9774;52.034;5.342;2023-07-30T08:29:38;6.63;;;2.13;;
19280;SDS011;9774;52.034;5.342;2023-07-30T08:32:06;7.30;;;2.15;;
19280;SDS011;9774;52.034;5.342;2023-07-30T08:34:33;4.13;;;1.80;;
19280;SDS011;9774;52.034;5.342;2023-07-30T08:37:01;3.47;;;1.98;;
19280;SDS011;9774;52.034;5.342;2023-07-30T08:39:28;4.55;;;2.03;;
19280;SDS011;9774;52.034;5.342;2023-07-30T08:41:55;6.68;;;1.85;;
19280;SDS011;9774;52.034;5.342;2023-07-30T08:44:23;4.75;;;2.00;;
19280;SDS011;9774;52.034;5.342;2023-07-30T08:46:52;5.10;;;2.10;;
19280;SDS011;9774;52.034;5.342;2023-07-30T08:49:20;5.93;;;1.80;;
19280;SDS011;9774;52.034;5.342;2023-07-30T08:51:48;7.10;;;2.10;;
19280;SDS011;9774;52.034;5.342;2023-07-30T08:54:18;6.40;;;2.08;;
19280;SDS011;9774;52.034;5.342;2023-07-30T08:56:48;8.65;;;1.98;;
19280;SDS011;9774;52.034;5.342;2023-07-30T08:59:16;7.38;;;2.20;;
19280;SDS011;9774;52.034;5.342;2023-07-30T09:01:45;5.43;;;1.73;;
19280;SDS011;9774;52.034;5.342;2023-07-30T09:04:17;7.50;;;2.17;;
19280;SDS011;9774;52.034;5.342;2023-07-30T09:06:47;5.90;;;1.85;;
19280;SDS011;9774;52.034;5.342;2023-07-30T09:09:15;4.32;;;1.70;;
19280;SDS011;9774;52.034;5.342;2023-07-30T09:11:42;7.28;;;2.03;;
19280;SDS011;9774;52.034;5.342;2023-07-30T09:14:09;5.65;;;1.95;;
19280;SDS011;9774;52.034;5.342;2023-07-30T09:16:36;6.22;;;1.55;;
19280;SDS011;9774;52.034;5.342;2023-07-30T09:19:05;4.20;;;1.73;;
19280;SDS011;9774;52.034;5.342;2023-07-30T09:21:34;6.00;;;2.00;;
19280;SDS011;9774;52.034;5.342;2023-07-30T09:24:02;5.50;;;1.95;;
19280;SDS011;9774;52.034;5.342;2023-07-30T09:26:39;3.97;;;1.85;;
19280;SDS011;9774;52.034;5.342;2023-07-30T09:29:08;7.18;;;1.73;;
19280;SDS011;9774;52.034;5.342;2023-07-30T09:31:49;7.30;;;2.05;;
19280;SDS011;9774;52.034;5.342;2023-07-30T09:34:19;3.95;;;1.60;;
19280;SDS011;9774;52.034;5.342;2023-07-30T09:36:50;4.75;;;1.40;;
19280;SDS011;9774;52.034;5.342;2023-07-30T09:39:19;6.25;;;1.50;;
19280;SDS011;9774;52.034;5.342;2023-07-30T09:41:48;7.28;;;1.45;;
19280;SDS011;9774;52.034;5.342;2023-07-30T09:44:16;4.43;;;1.48;;
19280;SDS011;9774;52.034;5.342;2023-07-30T09:46:45;5.38;;;1.67;;
19280;SDS011;9774;52.034;5.342;2023-07-30T09:49:13;3.33;;;1.45;;
19280;SDS011;9774;52.034;5.342;2023-07-30T09:51:41;4.18;;;1.27;;
19280;SDS011;9774;52.034;5.342;2023-07-30T09:54:10;9.60;;;1.95;;
19280;SDS011;9774;52.034;5.342;2023-07-30T09:56:39;5.20;;;1.42;;
19280;SDS011;9774;52.034;5.342;2023-07-30T09:59:08;6.07;;;1.45;;
19280;SDS011;9774;52.034;5.342;2023-07-30T10:01:38;8.40;;;1.80;;
19280;SDS011;9774;52.034;5.342;2023-07-30T10:04:08;5.38;;;1.60;;
19280;SDS011;9774;52.034;5.342;2023-07-30T10:06:37;3.10;;;1.20;;
19280;SDS011;9774;52.034;5.342;2023-07-30T10:09:07;4.55;;;1.40;;
19280;SDS011;9774;52.034;5.342;2023-07-30T10:11:38;4.45;;;1.70;;
19280;SDS011;9774;52.034;5.342;2023-07-30T10:14:07;3.70;;;1.52;;
19280;SDS011;9774;52.034;5.342;2023-07-30T10:16:35;5.75;;;1.13;;
19280;SDS011;9774;52.034;5.342;2023-07-30T10:19:02;2.40;;;1.15;;
19280;SDS011;9774;52.034;5.342;2023-07-30T10:21:31;7.38;;;1.67;;
19280;SDS011;9774;52.034;5.342;2023-07-30T10:23:59;5.63;;;1.25;;
19280;SDS011;9774;52.034;5.342;2023-07-30T10:26:30;6.40;;;1.30;;
19280;SDS011;9774;52.034;5.342;2023-07-30T10:29:11;2.90;;;1.05;;
19280;SDS011;9774;52.034;5.342;2023-07-30T10:31:39;4.47;;;1.20;;
19280;SDS011;9774;52.034;5.342;2023-07-30T10:34:07;3.70;;;1.30;;
19280;SDS011;9774;52.034;5.342;2023-07-30T10:36:40;5.63;;;1.27;;
19280;SDS011;9774;52.034;5.342;2023-07-30T10:39:13;3.33;;;1.02;;
19280;SDS011;9774;52.034;5.342;2023-07-30T10:41:47;3.85;;;0.90;;
19280;SDS011;9774;52.034;5.342;2023-07-30T10:44:21;5.35;;;1.48;;
19280;SDS011;9774;52.034;5.342;2023-07-30T10:46:50;4.63;;;1.13;;
19280;SDS011;9774;52.034;5.342;2023-07-30T10:49:17;3.42;;;0.75;;
19280;SDS011;9774;52.034;5.342;2023-07-30T10:51:44;4.53;;;0.80;;
19280;SDS011;9774;52.034;5.342;2023-07-30T10:54:12;3.83;;;1.08;;
19280;SDS011;9774;52.034;5.342;2023-07-30T10:56:40;2.35;;;0.98;;
19280;SDS011;9774;52.034;5.342;2023-07-30T10:59:11;3.70;;;0.80;;
19280;SDS011;9774;52.034;5.342;2023-07-30T11:01:40;2.22;;;0.77;;
19280;SDS011;9774;52.034;5.342;2023-07-30T11:04:09;4.95;;;0.90;;
19280;SDS011;9774;52.034;5.342;2023-07-30T11:06:37;1.65;;;0.77;;
19280;SDS011;9774;52.034;5.342;2023-07-30T11:09:04;1.75;;;0.82;;
19280;SDS011;9774;52.034;5.342;2023-07-30T11:11:31;3.97;;;0.70;;
19280;SDS011;9774;52.034;5.342;2023-07-30T11:13:59;3.53;;;1.00;;
19280;SDS011;9774;52.034;5.342;2023-07-30T11:16:27;4.72;;;0.90;;
19280;SDS011;9774;52.034;5.342;2023-07-30T11:18:55;2.42;;;0.85;;
19280;SDS011;9774;52.034;5.342;2023-07-30T11:21:22;3.33;;;1.02;;
19280;SDS011;9774;52.034;5.342;2023-07-30T11:23:50;2.78;;;0.55;;
19280;SDS011;9774;52.034;5.342;2023-07-30T11:26:18;4.75;;;1.20;;
19280;SDS011;9774;52.034;5.342;2023-07-30T11:28:46;4.65;;;0.77;;
19280;SDS011;9774;52.034;5.342;2023-07-30T11:31:14;1.23;;;0.50;;
19280;SDS011;9774;52.034;5.342;2023-07-30T11:33:45;3.10;;;0.60;;
19280;SDS011;9774;52.034;5.342;2023-07-30T11:36:14;2.30;;;0.68;;
19280;SDS011;9774;52.034;5.342;2023-07-30T11:38:42;1.00;;;0.60;;
19280;SDS011;9774;52.034;5.342;2023-07-30T11:41:10;2.42;;;0.65;;
19280;SDS011;9774;52.034;5.342;2023-07-30T11:43:39;2.78;;;0.85;;
19280;SDS011;9774;52.034;5.342;2023-07-30T11:46:08;1.83;;;0.60;;
19280;SDS011;9774;52.034;5.342;2023-07-30T11:48:37;3.20;;;1.17;;
19280;SDS011;9774;52.034;5.342;2023-07-30T11:51:07;4.05;;;0.95;;
19280;SDS011;9774;52.034;5.342;2023-07-30T11:53:44;1.13;;;0.43;;
19280;SDS011;9774;52.034;5.342;2023-07-30T11:56:16;2.97;;;0.60;;
19280;SDS011;9774;52.034;5.342;2023-07-30T11:58:45;3.35;;;0.90;;
19280;SDS011;9774;52.034;5.342;2023-07-30T12:01:13;2.75;;;0.85;;
19280;SDS011;9774;52.034;5.342;2023-07-30T12:03:40;5.85;;;0.80;;
19280;SDS011;9774;52.034;5.342;2023-07-30T12:06:10;2.35;;;0.90;;
19280;SDS011;9774;52.034;5.342;2023-07-30T12:08:38;1.92;;;0.60;;
19280;SDS011;9774;52.034;5.342;2023-07-30T12:11:06;1.33;;;0.40;;
19280;SDS011;9774;52.034;5.342;2023-07-30T12:13:34;5.78;;;1.13;;
19280;SDS011;9774;52.034;5.342;2023-07-30T12:16:10;3.58;;;0.90;;
19280;SDS011;9774;52.034;5.342;2023-07-30T12:18:38;7.03;;;0.85;;
19280;SDS011;9774;52.034;5.342;2023-07-30T12:21:06;2.25;;;0.75;;
19280;SDS011;9774;52.034;5.342;2023-07-30T12:23:37;2.83;;;0.80;;
19280;SDS011;9774;52.034;5.342;2023-07-30T12:26:04;4.72;;;1.00;;
19280;SDS011;9774;52.034;5.342;2023-07-30T12:28:32;2.75;;;0.68;;
19280;SDS011;9774;52.034;5.342;2023-07-30T12:30:59;2.38;;;0.45;;
19280;SDS011;9774;52.034;5.342;2023-07-30T12:33:27;4.30;;;1.17;;
19280;SDS011;9774;52.034;5.342;2023-07-30T12:35:54;1.35;;;0.63;;
19280;SDS011;9774;52.034;5.342;2023-07-30T12:38:21;2.95;;;0.70;;
19280;SDS011;9774;52.034;5.342;2023-07-30T12:40:50;2.40;;;0.75;;
19280;SDS011;9774;52.034;5.342;2023-07-30T12:43:17;3.80;;;0.70;;
19280;SDS011;9774;52.034;5.342;2023-07-30T12:45:46;1.80;;;0.60;;
19280;SDS011;9774;52.034;5.342;2023-07-30T12:48:13;1.63;;;0.60;;
19280;SDS011;9774;52.034;5.342;2023-07-30T12:50:41;2.45;;;0.73;;
19280;SDS011;9774;52.034;5.342;2023-07-30T12:53:08;3.47;;;0.77;;
19280;SDS011;9774;52.034;5.342;2023-07-30T12:55:35;2.92;;;0.73;;
19280;SDS011;9774;52.034;5.342;2023-07-30T12:58:05;0.98;;;0.20;;
19280;SDS011;9774;52.034;5.342;2023-07-30T13:00:33;2.88;;;0.85;;
19280;SDS011;9774;52.034;5.342;2023-07-30T13:03:00;1.15;;;0.45;;
19280;SDS011;9774;52.034;5.342;2023-07-30T13:05:28;2.20;;;0.52;;
19280;SDS011;9774;52.034;5.342;2023-07-30T13:07:55;3.95;;;0.95;;
19280;SDS011;9774;52.034;5.342;2023-07-30T13:10:22;5.65;;;0.73;;
19280;SDS011;9774;52.034;5.342;2023-07-30T13:12:50;3.15;;;0.70;;
19280;SDS011;9774;52.034;5.342;2023-07-30T13:15:18;1.10;;;0.60;;
19280;SDS011;9774;52.034;5.342;2023-07-30T13:17:46;1.27;;;0.52;;
19280;SDS011;9774;52.034;5.342;2023-07-30T13:20:13;3.38;;;0.40;;
19280;SDS011;9774;52.034;5.342;2023-07-30T13:22:40;1.83;;;0.70;;
19280;SDS011;9774;52.034;5.342;2023-07-30T13:25:07;1.40;;;0.40;;
19280;SDS011;9774;52.034;5.342;2023-07-30T13:27:35;1.17;;;0.35;;
19280;SDS011;9774;52.034;5.342;2023-07-30T13:30:02;3.13;;;0.50;;
19280;SDS011;9774;52.034;5.342;2023-07-30T13:32:31;1.55;;;0.75;;
19280;SDS011;9774;52.034;5.342;2023-07-30T13:34:59;2.22;;;0.50;;
19280;SDS011;9774;52.034;5.342;2023-07-30T13:37:26;1.63;;;0.47;;
19280;SDS011;9774;52.034;5.342;2023-07-30T13:39:54;2.78;;;0.50;;
19280;SDS011;9774;52.034;5.342;2023-07-30T13:42:21;1.67;;;0.40;;
19280;SDS011;9774;52.034;5.342;2023-07-30T13:44:48;1.15;;;0.68;;
19280;SDS011;9774;52.034;5.342;2023-07-30T13:47:15;1.85;;;0.50;;
19280;SDS011;9774;52.034;5.342;2023-07-30T13:49:44;1.63;;;0.45;;
19280;SDS011;9774;52.034;5.342;2023-07-30T13:52:12;1.20;;;0.73;;
19280;SDS011;9774;52.034;5.342;2023-07-30T13:54:39;2.55;;;0.63;;
19280;SDS011;9774;52.034;5.342;2023-07-30T13:57:10;1.60;;;0.55;;
19280;SDS011;9774;52.034;5.342;2023-07-30T13:59:37;3.05;;;0.77;;
19280;SDS011;9774;52.034;5.342;2023-07-30T14:02:09;0.90;;;0.40;;
19280;SDS011;9774;52.034;5.342;2023-07-30T14:04:36;1.73;;;0.38;;
19280;SDS011;9774;52.034;5.342;2023-07-30T14:07:05;2.33;;;0.63;;
19280;SDS011;9774;52.034;5.342;2023-07-30T14:09:32;3.25;;;0.82;;
19280;SDS011;9774;52.034;5.342;2023-07-30T14:12:01;1.92;;;0.55;;
19280;SDS011;9774;52.034;5.342;2023-07-30T14:14:29;2.53;;;0.50;;
19280;SDS011;9774;52.034;5.342;2023-07-30T14:16:56;3.08;;;0.90;;
19280;SDS011;9774;52.034;5.342;2023-07-30T14:19:23;2.17;;;0.77;;
19280;SDS011;9774;52.034;5.342;2023-07-30T14:21:50;1.58;;;0.70;;
19280;SDS011;9774;52.034;5.342;2023-07-30T14:24:19;3.28;;;0.57;;
19280;SDS011;9774;52.034;5.342;2023-07-30T14:26:47;3.05;;;0.68;;
19280;SDS011;9774;52.034;5.342;2023-07-30T14:29:14;1.30;;;0.40;;
19280;SDS011;9774;52.034;5.342;2023-07-30T14:31:42;2.40;;;0.65;;
19280;SDS011;9774;52.034;5.342;2023-07-30T14:34:09;5.30;;;0.82;;
19280;SDS011;9774;52.034;5.342;2023-07-30T14:36:36;1.77;;;0.60;;
19280;SDS011;9774;52.034;5.342;2023-07-30T14:39:03;4.30;;;0.98;;
19280;SDS011;9774;52.034;5.342;2023-07-30T14:41:32;3.03;;;0.77;;
19280;SDS011;9774;52.034;5.342;2023-07-30T14:44:00;4.07;;;0.88;;
19280;SDS011;9774;52.034;5.342;2023-07-30T14:46:27;1.60;;;0.80;;
19280;SDS011;9774;52.034;5.342;2023-07-30T14:48:54;3.25;;;0.57;;
19280;SDS011;9774;52.034;5.342;2023-07-30T14:51:21;6.13;;;0.93;;
19280;SDS011;9774;52.034;5.342;2023-07-30T14:53:48;0.40;;;0.30;;
19280;SDS011;9774;52.034;5.342;2023-07-30T14:56:16;3.40;;;0.88;;
19280;SDS011;9774;52.034;5.342;2023-07-30T14:58:45;2.95;;;0.60;;
19280;SDS011;9774;52.034;5.342;2023-07-30T15:01:12;2.67;;;0.73;;
19280;SDS011;9774;52.034;5.342;2023-07-30T15:03:39;2.47;;;0.75;;
19280;SDS011;9774;52.034;5.342;2023-07-30T15:06:06;6.90;;;1.48;;